createdAt,value
2018-09-15T00:01:22.907Z,99.90
2018-09-15T00:03:51.121Z,99.90
2018-09-15T00:06:19.348Z,99.90
2018-09-15T00:08:47.630Z,99.90
2018-09-15T00:11:15.874Z,99.90
2018-09-15T00:13:44.059Z,99.90
2018-09-15T00:16:12.274Z,99.90
2018-09-15T00:18:40.514Z,99.90
2018-09-15T00:21:08.736Z,99.90
2018-09-15T00:23:36.963Z,99.90
2018-09-15T00:26:05.205Z,99.90
2018-09-15T00:28:33.466Z,99.90
2018-09-15T00:31:01.810Z,99.90
2018-09-15T00:33:30.053Z,99.90
2018-09-15T00:35:58.260Z,99.90
2018-09-15T00:38:26.516Z,99.90
2018-09-15T00:40:54.770Z,99.90
2018-09-15T00:43:22.985Z,99.90
2018-09-15T00:45:51.328Z,99.90
2018-09-15T00:48:19.522Z,99.90
2018-09-15T00:50:47.738Z,99.90
2018-09-15T00:53:16.077Z,99.90
2018-09-15T00:55:44.304Z,99.90
2018-09-15T00:58:12.525Z,99.90
2018-09-15T01:00:40.745Z,99.90
2018-09-15T01:03:09.037Z,99.90
2018-09-15T01:05:37.251Z,99.90
2018-09-15T01:08:05.784Z,99.90
2018-09-15T01:10:34.002Z,99.90
2018-09-15T01:13:02.182Z,99.90
2018-09-15T01:15:30.477Z,99.90
2018-09-15T01:17:58.655Z,99.90
2018-09-15T01:20:26.898Z,99.90
2018-09-15T01:22:55.102Z,99.90
2018-09-15T01:25:23.361Z,99.90
2018-09-15T01:27:51.570Z,99.90
2018-09-15T01:30:19.988Z,99.90
2018-09-15T01:32:48.196Z,99.90
2018-09-15T01:35:16.409Z,99.90
2018-09-15T01:37:44.649Z,99.90
2018-09-15T01:40:12.835Z,99.90
2018-09-15T01:42:41.051Z,99.90
2018-09-15T01:45:09.317Z,99.90
2018-09-15T01:47:37.578Z,99.90
2018-09-15T01:50:05.803Z,99.90
2018-09-15T01:52:34.749Z,99.90
2018-09-15T01:55:02.974Z,99.90
2018-09-15T01:57:31.274Z,99.90
2018-09-15T01:59:59.485Z,99.90
2018-09-15T02:02:27.716Z,99.90
2018-09-15T02:04:55.932Z,99.90
2018-09-15T02:07:24.156Z,99.90
2018-09-15T02:09:52.392Z,99.90
2018-09-15T02:12:20.682Z,99.90
2018-09-15T02:14:48.894Z,99.90
2018-09-15T02:17:17.150Z,99.90
2018-09-15T02:19:45.343Z,99.90
2018-09-15T02:22:13.603Z,99.90
2018-09-15T02:24:41.866Z,99.90
2018-09-15T02:27:10.055Z,99.90
2018-09-15T02:29:38.277Z,99.90
2018-09-15T02:32:06.515Z,99.90
2018-09-15T02:34:34.705Z,99.90
2018-09-15T02:37:02.907Z,99.90
2018-09-15T02:39:31.133Z,99.90
2018-09-15T02:41:59.357Z,99.90
2018-09-15T02:44:27.801Z,99.90
2018-09-15T02:46:56.057Z,99.90
2018-09-15T02:49:24.237Z,99.90
2018-09-15T02:51:52.508Z,99.90
2018-09-15T02:54:20.705Z,99.90
2018-09-15T02:56:48.953Z,99.90
2018-09-15T02:59:17.158Z,99.90
2018-09-15T03:01:45.373Z,99.90
2018-09-15T03:04:13.590Z,99.90
2018-09-15T03:06:41.822Z,99.90
2018-09-15T03:09:11.551Z,99.90
2018-09-15T03:11:39.777Z,99.90
2018-09-15T03:14:08.205Z,99.90
2018-09-15T03:16:36.804Z,99.90
2018-09-15T03:19:05.299Z,99.90
2018-09-15T03:21:33.489Z,99.90
2018-09-15T03:24:01.717Z,99.90
2018-09-15T03:26:30.280Z,99.90
2018-09-15T03:28:58.629Z,99.90
2018-09-15T03:31:26.833Z,99.90
2018-09-15T03:33:55.079Z,99.90
2018-09-15T03:36:23.326Z,99.90
2018-09-15T03:38:51.509Z,99.90
2018-09-15T03:41:19.755Z,99.90
2018-09-15T03:43:48.000Z,99.90
2018-09-15T03:46:16.193Z,99.90
2018-09-15T03:48:44.429Z,99.90
2018-09-15T03:51:12.818Z,99.90
2018-09-15T03:53:41.038Z,99.90
2018-09-15T03:56:09.267Z,99.90
2018-09-15T03:58:37.482Z,99.90
2018-09-15T04:01:05.874Z,99.90
2018-09-15T04:03:34.368Z,99.90
2018-09-15T04:06:02.568Z,99.90
2018-09-15T04:08:30.786Z,99.90
2018-09-15T04:10:58.997Z,99.90
2018-09-15T04:13:27.264Z,99.90
2018-09-15T04:15:55.497Z,99.90
2018-09-15T04:18:23.715Z,99.90
2018-09-15T04:20:51.929Z,99.90
2018-09-15T04:23:20.117Z,99.90
2018-09-15T04:25:48.325Z,99.90
2018-09-15T04:28:16.878Z,99.90
2018-09-15T04:30:45.018Z,99.90
2018-09-15T04:33:13.237Z,99.90
2018-09-15T04:35:41.502Z,99.90
2018-09-15T04:38:09.709Z,99.90
2018-09-15T04:40:37.985Z,99.90
2018-09-15T04:43:06.155Z,99.90
2018-09-15T04:45:34.375Z,99.90
2018-09-15T04:48:02.581Z,99.90
2018-09-15T04:50:30.805Z,99.90
2018-09-15T04:52:59.056Z,99.90
2018-09-15T04:55:27.253Z,99.90
2018-09-15T04:57:55.659Z,99.90
2018-09-15T05:00:23.876Z,99.90
2018-09-15T05:02:52.088Z,99.90
2018-09-15T05:05:20.285Z,99.90
2018-09-15T05:07:48.513Z,99.90
2018-09-15T05:10:16.741Z,99.90
2018-09-15T05:12:44.983Z,99.90
2018-09-15T05:15:13.170Z,99.90
2018-09-15T05:17:41.369Z,99.90
2018-09-15T05:20:09.877Z,99.90
2018-09-15T05:22:38.073Z,99.90
2018-09-15T05:25:06.406Z,99.90
2018-09-15T05:27:34.629Z,99.90
2018-09-15T05:30:02.846Z,99.90
2018-09-15T05:32:31.053Z,99.90
2018-09-15T05:34:59.273Z,99.90
2018-09-15T05:37:27.501Z,99.90
2018-09-15T05:39:55.771Z,99.90
2018-09-15T05:42:24.045Z,99.90
2018-09-15T05:44:52.229Z,99.90
2018-09-15T05:47:20.441Z,99.90
2018-09-15T05:49:48.729Z,99.90
2018-09-15T05:52:17.079Z,99.90
2018-09-15T05:54:45.332Z,99.90
2018-09-15T05:57:13.552Z,99.90
2018-09-15T05:59:41.826Z,99.90
2018-09-15T06:02:10.037Z,99.90
2018-09-15T06:04:38.501Z,99.90
2018-09-15T06:07:06.757Z,99.90
2018-09-15T06:09:34.990Z,99.90
2018-09-15T06:12:03.438Z,99.90
2018-09-15T06:14:31.642Z,99.90
2018-09-15T06:16:59.901Z,99.90
2018-09-15T06:19:28.137Z,99.90
2018-09-15T06:21:56.340Z,99.90
2018-09-15T06:24:24.622Z,99.90
2018-09-15T06:26:52.873Z,99.90
2018-09-15T06:29:21.072Z,99.90
2018-09-15T06:31:49.320Z,99.90
2018-09-15T06:34:17.517Z,99.90
2018-09-15T06:36:45.729Z,99.90
2018-09-15T06:39:13.997Z,99.90
2018-09-15T06:41:42.172Z,99.90
2018-09-15T06:44:10.384Z,99.90
2018-09-15T06:46:38.770Z,99.90
2018-09-15T06:49:07.179Z,99.90
2018-09-15T06:51:35.396Z,99.90
2018-09-15T06:54:03.640Z,99.90
2018-09-15T06:56:31.873Z,99.90
2018-09-15T06:59:00.109Z,99.90
2018-09-15T07:01:28.312Z,99.90
2018-09-15T07:03:56.521Z,99.90
2018-09-15T07:06:24.774Z,99.90
2018-09-15T07:08:52.953Z,99.90
2018-09-15T07:11:21.184Z,99.90
2018-09-15T07:13:49.444Z,99.90
2018-09-15T07:16:17.674Z,99.90
2018-09-15T07:18:45.894Z,99.90
2018-09-15T07:21:14.230Z,99.90
2018-09-15T07:23:42.455Z,99.90
2018-09-15T07:26:10.703Z,99.90
2018-09-15T07:28:38.945Z,99.90
2018-09-15T07:31:07.185Z,99.90
2018-09-15T07:33:35.524Z,99.90
2018-09-15T07:36:03.906Z,99.90
2018-09-15T07:38:32.133Z,99.90
2018-09-15T07:41:00.509Z,99.90
2018-09-15T07:43:28.745Z,99.90
2018-09-15T07:45:57.095Z,99.90
2018-09-15T07:48:25.305Z,99.90
2018-09-15T07:50:53.521Z,99.90
2018-09-15T07:53:21.740Z,99.90
2018-09-15T07:55:50.058Z,99.90
2018-09-15T07:58:18.253Z,99.90
2018-09-15T08:00:46.488Z,99.90
2018-09-15T08:03:14.751Z,99.90
2018-09-15T08:05:42.962Z,99.90
2018-09-15T08:08:11.190Z,99.90
2018-09-15T08:10:39.393Z,99.90
2018-09-15T08:13:07.625Z,99.90
2018-09-15T08:15:35.962Z,99.90
2018-09-15T08:18:04.213Z,99.90
2018-09-15T08:20:32.491Z,99.90
2018-09-15T08:23:00.731Z,99.90
2018-09-15T08:25:28.935Z,99.90
2018-09-15T08:27:57.142Z,99.90
2018-09-15T08:30:25.363Z,99.90
2018-09-15T08:32:53.580Z,99.90
2018-09-15T08:35:21.907Z,99.90
2018-09-15T08:37:50.081Z,99.90
2018-09-15T08:40:18.472Z,99.90
2018-09-15T08:42:46.669Z,99.90
2018-09-15T08:45:14.913Z,99.90
2018-09-15T08:47:43.161Z,99.90
2018-09-15T08:50:11.360Z,99.90
2018-09-15T08:52:39.944Z,99.90
2018-09-15T08:55:08.166Z,99.90
2018-09-15T08:57:36.353Z,99.90
2018-09-15T09:00:04.619Z,99.90
2018-09-15T09:02:32.869Z,99.90
2018-09-15T09:05:01.137Z,99.90
2018-09-15T09:07:29.385Z,99.90
2018-09-15T09:09:57.656Z,99.90
2018-09-15T09:12:25.907Z,99.90
2018-09-15T09:14:54.149Z,99.90
2018-09-15T09:17:22.353Z,99.90
2018-09-15T09:19:50.603Z,99.80
2018-09-15T09:22:18.773Z,98.90
2018-09-15T09:24:47.081Z,97.80
2018-09-15T09:27:15.481Z,97.60
2018-09-15T09:29:43.705Z,98.60
2018-09-15T09:32:11.917Z,98.50
2018-09-15T09:34:40.141Z,98.80
2018-09-15T09:37:08.349Z,98.10
2018-09-15T09:39:36.590Z,98.50
2018-09-15T09:42:04.931Z,98.80
2018-09-15T09:44:33.388Z,98.50
2018-09-15T09:47:01.872Z,98.90
2018-09-15T09:49:30.199Z,99.50
2018-09-15T09:51:58.446Z,98.90
2018-09-15T09:54:26.956Z,98.90
2018-09-15T09:56:55.336Z,97.80
2018-09-15T09:59:23.537Z,96.90
2018-09-15T10:01:57.111Z,97.10
2018-09-15T10:04:25.341Z,96.30
2018-09-15T10:06:53.595Z,96.40
2018-09-15T10:09:21.903Z,94.30
2018-09-15T10:11:50.102Z,93.00
2018-09-15T10:14:18.321Z,93.20
2018-09-15T10:16:46.769Z,91.80
2018-09-15T10:19:15.045Z,90.00
2018-09-15T10:21:43.249Z,89.00
2018-09-15T10:24:11.462Z,89.60
2018-09-15T10:26:39.700Z,90.80
2018-09-15T10:29:07.933Z,89.50
2018-09-15T10:31:36.636Z,86.60
2018-09-15T10:34:04.852Z,88.90
2018-09-15T10:36:33.126Z,87.80
2018-09-15T10:39:01.361Z,85.10
2018-09-15T10:41:29.839Z,86.10
2018-09-15T10:43:58.039Z,86.10
2018-09-15T10:46:26.292Z,85.90
2018-09-15T10:48:54.464Z,85.70
2018-09-15T10:51:22.677Z,90.20
2018-09-15T10:53:50.924Z,86.20
2018-09-15T10:56:19.313Z,85.50
2018-09-15T10:58:47.545Z,87.70
2018-09-15T11:01:15.822Z,84.40
2018-09-15T11:03:44.021Z,83.10
2018-09-15T11:06:12.399Z,84.70
2018-09-15T11:08:40.785Z,85.10
2018-09-15T11:11:08.978Z,80.90
2018-09-15T11:13:37.553Z,77.00
2018-09-15T11:16:06.022Z,76.40
2018-09-15T11:18:34.266Z,73.80
2018-09-15T11:21:02.493Z,75.20
2018-09-15T11:23:30.725Z,69.60
2018-09-15T11:25:58.953Z,68.40
2018-09-15T11:28:27.238Z,70.00
2018-09-15T11:30:55.436Z,69.40
2018-09-15T11:33:23.645Z,72.00
2018-09-15T11:35:51.860Z,66.30
2018-09-15T11:38:20.210Z,66.90
2018-09-15T11:40:48.421Z,65.80
2018-09-15T11:43:16.782Z,67.50
2018-09-15T11:45:45.111Z,70.50
2018-09-15T11:48:13.331Z,71.90
2018-09-15T11:50:41.685Z,71.70
2018-09-15T11:53:10.265Z,70.50
2018-09-15T11:55:38.746Z,64.70
2018-09-15T11:58:07.124Z,64.80
2018-09-15T12:00:38.033Z,59.40
2018-09-15T12:03:06.396Z,54.80
2018-09-15T12:05:34.717Z,48.90
2018-09-15T12:08:02.906Z,44.80
2018-09-15T12:10:31.168Z,42.00
2018-09-15T12:12:59.368Z,37.20
2018-09-15T12:15:27.576Z,31.40
2018-09-15T12:17:55.787Z,30.80
2018-09-15T12:20:24.064Z,31.00
2018-09-15T12:22:52.485Z,31.10
2018-09-15T12:25:20.826Z,35.20
2018-09-15T12:27:49.261Z,32.10
2018-09-15T12:30:17.481Z,29.40
2018-09-15T12:32:45.962Z,32.10
2018-09-15T12:35:14.209Z,32.20
2018-09-15T12:37:42.477Z,29.60
2018-09-15T12:40:10.881Z,30.10
2018-09-15T12:42:39.105Z,32.00
2018-09-15T12:45:07.690Z,33.30
2018-09-15T12:47:35.825Z,36.00
2018-09-15T12:50:04.308Z,37.70
2018-09-15T12:52:32.587Z,38.10
2018-09-15T12:55:00.801Z,39.10
2018-09-15T12:57:29.531Z,40.10
2018-09-15T12:59:57.761Z,41.50
2018-09-15T13:02:25.985Z,41.80
2018-09-15T13:04:54.241Z,41.50
2018-09-15T13:07:22.526Z,39.90
2018-09-15T13:09:50.745Z,39.70
2018-09-15T13:12:19.026Z,39.20
2018-09-15T13:14:47.222Z,40.00
2018-09-15T13:17:15.448Z,38.40
2018-09-15T13:19:43.649Z,36.00
2018-09-15T13:22:11.861Z,33.70
2018-09-15T13:24:40.068Z,33.20
2018-09-15T13:27:08.455Z,29.00
2018-09-15T13:29:36.840Z,29.00
2018-09-15T13:32:04.960Z,27.00
2018-09-15T13:34:33.189Z,26.30
2018-09-15T13:37:01.421Z,25.60
2018-09-15T13:39:29.663Z,26.20
2018-09-15T13:41:57.894Z,26.20
2018-09-15T13:44:26.104Z,26.40
2018-09-15T13:46:54.383Z,27.40
2018-09-15T13:49:22.822Z,28.30
2018-09-15T13:51:51.265Z,28.70
2018-09-15T13:54:19.490Z,30.90
2018-09-15T13:56:47.772Z,33.10
2018-09-15T13:59:15.988Z,34.40
2018-09-15T14:01:44.250Z,32.20
2018-09-15T14:04:12.461Z,34.40
2018-09-15T14:06:40.678Z,35.50
2018-09-15T14:09:10.158Z,37.30
2018-09-15T14:11:38.924Z,40.00
2018-09-15T14:14:07.405Z,41.60
2018-09-15T14:16:35.787Z,43.10
2018-09-15T14:19:04.289Z,44.50
2018-09-15T14:21:32.784Z,45.80
2018-09-15T14:24:00.996Z,47.50
2018-09-15T14:26:29.235Z,48.10
2018-09-15T14:28:57.437Z,47.60
2018-09-15T14:31:25.695Z,47.60
2018-09-15T14:33:54.107Z,45.00
2018-09-15T14:36:22.375Z,41.40
2018-09-15T14:38:50.585Z,36.10
2018-09-15T14:41:18.739Z,32.80
2018-09-15T14:43:47.265Z,30.20
2018-09-15T14:46:15.655Z,29.60
2018-09-15T14:48:43.857Z,27.90
2018-09-15T14:51:12.202Z,27.00
2018-09-15T14:53:40.476Z,26.70
2018-09-15T14:56:09.374Z,26.70
2018-09-15T14:58:37.751Z,26.90
2018-09-15T15:01:06.109Z,27.60
2018-09-15T15:03:34.508Z,27.00
2018-09-15T15:06:02.701Z,25.70
2018-09-15T15:08:31.021Z,25.50
2018-09-15T15:10:59.237Z,24.50
2018-09-15T15:13:27.518Z,24.00
2018-09-15T15:15:55.689Z,23.40
2018-09-15T15:18:24.021Z,23.80
2018-09-15T15:20:52.321Z,25.90
2018-09-15T15:23:20.581Z,27.70
2018-09-15T15:25:49.144Z,29.90
2018-09-15T15:28:17.285Z,32.00
2018-09-15T15:30:45.549Z,34.30
2018-09-15T15:33:13.773Z,36.60
2018-09-15T15:35:41.992Z,37.20
2018-09-15T15:38:10.230Z,38.60
2018-09-15T15:40:38.480Z,40.10
2018-09-15T15:43:06.673Z,41.40
2018-09-15T15:45:35.111Z,42.10
2018-09-15T15:48:03.333Z,42.30
2018-09-15T15:50:31.593Z,43.10
2018-09-15T15:52:59.802Z,43.80
2018-09-15T15:55:28.028Z,44.70
2018-09-15T15:57:56.209Z,44.50
2018-09-15T16:00:24.461Z,44.50
2018-09-15T16:02:52.981Z,45.60
2018-09-15T16:05:21.179Z,46.00
2018-09-15T16:07:49.517Z,46.80
2018-09-15T16:10:17.749Z,48.00
2018-09-15T16:12:46.022Z,49.30
2018-09-15T16:15:14.258Z,49.20
2018-09-15T16:17:42.594Z,49.80
2018-09-15T16:20:10.989Z,50.20
2018-09-15T16:22:39.189Z,51.40
2018-09-15T16:25:07.458Z,52.00
2018-09-15T16:27:35.866Z,53.30
2018-09-15T16:30:04.361Z,53.60
2018-09-15T16:32:32.888Z,53.30
2018-09-15T16:35:01.103Z,54.30
2018-09-15T16:37:29.313Z,54.40
2018-09-15T16:39:57.591Z,54.90
2018-09-15T16:42:25.792Z,54.70
2018-09-15T16:44:54.025Z,56.90
2018-09-15T16:47:22.233Z,55.30
2018-09-15T16:49:50.430Z,54.70
2018-09-15T16:52:18.650Z,55.10
2018-09-15T16:54:46.839Z,54.90
2018-09-15T16:57:15.077Z,54.50
2018-09-15T16:59:43.326Z,54.80
2018-09-15T17:02:11.534Z,54.50
2018-09-15T17:04:39.750Z,55.70
2018-09-15T17:07:07.960Z,56.20
2018-09-15T17:09:36.579Z,56.80
2018-09-15T17:12:04.892Z,56.20
2018-09-15T17:14:33.334Z,55.60
2018-09-15T17:17:01.698Z,56.60
2018-09-15T17:19:29.923Z,56.20
2018-09-15T17:21:58.100Z,56.80
2018-09-15T17:24:26.667Z,57.10
2018-09-15T17:26:55.043Z,57.50
2018-09-15T17:29:23.421Z,57.30
2018-09-15T17:31:51.674Z,57.50
2018-09-15T17:34:20.173Z,57.10
2018-09-15T17:36:48.383Z,57.00
2018-09-15T17:39:16.939Z,56.70
2018-09-15T17:41:45.177Z,57.40
2018-09-15T17:44:13.385Z,57.30
2018-09-15T17:46:41.597Z,57.90
2018-09-15T17:49:09.838Z,57.70
2018-09-15T17:51:38.401Z,56.50
2018-09-15T17:54:06.677Z,56.60
2018-09-15T17:56:34.901Z,57.20
2018-09-15T17:59:03.167Z,57.30
2018-09-15T18:01:31.434Z,56.40
2018-09-15T18:03:59.663Z,56.80
2018-09-15T18:06:27.914Z,57.40
2018-09-15T18:08:56.166Z,57.20
2018-09-15T18:11:24.364Z,57.70
2018-09-15T18:13:53.011Z,58.20
2018-09-15T18:16:21.201Z,58.80
2018-09-15T18:18:49.462Z,58.40
2018-09-15T18:21:17.662Z,58.80
2018-09-15T18:23:45.865Z,60.80
2018-09-15T18:26:14.141Z,60.00
2018-09-15T18:28:42.437Z,60.20
2018-09-15T18:31:10.739Z,61.00
2018-09-15T18:33:39.022Z,60.90
2018-09-15T18:36:07.284Z,61.50
2018-09-15T18:38:35.470Z,61.60
2018-09-15T18:41:03.697Z,62.00
2018-09-15T18:43:32.023Z,61.10
2018-09-15T18:46:00.237Z,61.60
2018-09-15T18:48:28.500Z,62.30
2018-09-15T18:50:56.725Z,62.80
2018-09-15T18:53:25.021Z,61.50
2018-09-15T18:55:53.299Z,61.80
2018-09-15T18:58:21.989Z,61.60
2018-09-15T19:00:50.193Z,61.20
2018-09-15T19:03:18.565Z,60.90
2018-09-15T19:05:47.307Z,60.30
2018-09-15T19:08:15.816Z,59.90
2018-09-15T19:10:44.369Z,61.10
2018-09-15T19:13:13.117Z,60.30
2018-09-15T19:15:41.399Z,61.30
2018-09-15T19:18:09.606Z,59.70
2018-09-15T19:20:38.121Z,59.90
2018-09-15T19:23:06.421Z,59.30
2018-09-15T19:25:34.696Z,60.20
2018-09-15T19:28:02.922Z,60.40
2018-09-15T19:30:31.264Z,60.00
2018-09-15T19:32:59.476Z,59.90
2018-09-15T19:35:27.683Z,60.60
2018-09-15T19:37:55.903Z,60.80
2018-09-15T19:40:24.141Z,60.30
2018-09-15T19:42:52.721Z,60.40
2018-09-15T19:45:20.957Z,61.10
2018-09-15T19:47:49.164Z,61.00
2018-09-15T19:50:17.501Z,61.40
2018-09-15T19:52:45.804Z,62.70
2018-09-15T19:55:13.993Z,63.80
2018-09-15T19:57:42.374Z,64.00
2018-09-15T20:00:10.577Z,63.20
2018-09-15T20:02:38.783Z,63.30
2018-09-15T20:05:07.177Z,64.70
2018-09-15T20:07:35.545Z,64.30
2018-09-15T20:10:03.755Z,63.80
2018-09-15T20:12:32.015Z,64.30
2018-09-15T20:15:00.381Z,67.60
2018-09-15T20:17:27.757Z,74.60
2018-09-15T20:19:54.997Z,78.80
2018-09-15T20:22:23.244Z,81.70
2018-09-15T20:24:51.467Z,85.50
2018-09-15T20:27:20.757Z,88.50
2018-09-15T20:29:49.130Z,90.20
2018-09-15T20:32:17.341Z,91.00
2018-09-15T20:34:45.547Z,91.60
2018-09-15T20:37:13.762Z,92.70
2018-09-15T20:39:41.956Z,93.40
2018-09-15T20:42:10.171Z,94.10
2018-09-15T20:44:38.465Z,94.90
2018-09-15T20:47:06.681Z,96.00
2018-09-15T20:49:35.063Z,96.20
2018-09-15T20:52:03.413Z,97.20
2018-09-15T20:54:31.590Z,97.80
2018-09-15T20:56:59.849Z,98.70
2018-09-15T20:59:28.062Z,99.40
2018-09-15T21:01:56.436Z,99.90
2018-09-15T21:04:24.637Z,99.90
2018-09-15T21:06:52.862Z,99.90
2018-09-15T21:09:21.087Z,99.90
2018-09-15T21:11:49.576Z,99.90
2018-09-15T21:14:17.805Z,99.90
2018-09-15T21:16:46.162Z,99.90
2018-09-15T21:19:14.401Z,99.90
2018-09-15T21:21:42.611Z,99.90
2018-09-15T21:24:10.833Z,99.90
2018-09-15T21:26:39.054Z,99.90
2018-09-15T21:29:07.327Z,99.90
2018-09-15T21:31:35.561Z,99.90
2018-09-15T21:34:04.317Z,99.90
2018-09-15T21:36:32.553Z,99.90
2018-09-15T21:39:00.821Z,99.90
2018-09-15T21:41:29.040Z,99.90
2018-09-15T21:43:57.294Z,99.90
2018-09-15T21:46:25.548Z,99.90
2018-09-15T21:48:53.785Z,99.90
2018-09-15T21:51:22.047Z,99.90
2018-09-15T21:53:50.290Z,99.90
2018-09-15T21:56:18.525Z,99.90
2018-09-15T21:58:46.774Z,99.90
2018-09-15T22:01:15.153Z,99.90
2018-09-15T22:03:48.660Z,99.90
2018-09-15T22:06:16.934Z,99.90
2018-09-15T22:08:45.181Z,99.90
2018-09-15T22:11:13.465Z,99.90
2018-09-15T22:13:41.944Z,99.90
2018-09-15T22:16:10.186Z,99.90
2018-09-15T22:18:38.375Z,99.90
2018-09-15T22:21:06.656Z,99.90
2018-09-15T22:23:34.863Z,99.90
2018-09-15T22:26:03.111Z,99.90
2018-09-15T22:28:31.605Z,99.90
2018-09-15T22:30:59.893Z,99.90
2018-09-15T22:33:28.137Z,99.90
2018-09-15T22:35:56.368Z,99.90
2018-09-15T22:38:24.585Z,99.90
2018-09-15T22:40:53.105Z,99.90
2018-09-15T22:43:21.565Z,99.90
2018-09-15T22:45:49.818Z,99.90
2018-09-15T22:48:18.142Z,99.90
2018-09-15T22:50:46.392Z,99.90
2018-09-15T22:53:14.648Z,99.90
2018-09-15T22:55:42.924Z,99.90
2018-09-15T22:58:11.105Z,99.90
2018-09-15T23:00:39.728Z,99.90
2018-09-15T23:03:07.916Z,99.90
2018-09-15T23:05:36.178Z,99.90
2018-09-15T23:08:04.453Z,99.90
2018-09-15T23:10:32.818Z,99.90
2018-09-15T23:13:01.045Z,99.90
2018-09-15T23:15:29.318Z,99.90
2018-09-15T23:17:57.622Z,99.90
2018-09-15T23:20:25.861Z,99.90
2018-09-15T23:22:54.089Z,99.90
2018-09-15T23:25:22.328Z,99.90
2018-09-15T23:27:50.553Z,99.90
2018-09-15T23:30:18.751Z,99.90
2018-09-15T23:32:46.977Z,99.90
2018-09-15T23:35:15.370Z,99.90
2018-09-15T23:37:43.649Z,99.90
2018-09-15T23:40:11.952Z,99.90
2018-09-15T23:42:40.134Z,99.90
2018-09-15T23:45:08.353Z,99.90
2018-09-15T23:47:36.821Z,99.90
2018-09-15T23:50:05.393Z,99.90
2018-09-15T23:52:33.657Z,99.90
2018-09-15T23:55:01.951Z,99.90
2018-09-15T23:57:30.292Z,99.90
2018-09-15T23:59:58.517Z,99.90
